Terminal Aerodrome Forecast
Issued by NWS Buffalo, NY

Home | Current Version | Previous Version | Text Only | Print | Product List | Glossary On
Versions: 1 2 3 4 5 6 7 8 9 10 11 12 13 14 15 16 17 18 19 20 21 22 23 24
000
FTUS41 KBUF 282320
TAFROC
TAF
KROC 282320Z 2900/2924 14005KT P6SM FEW050 SCT250
     FM290200 18005KT P6SM SCT250
     FM290800 22006KT 5SM BR SCT250
     FM291300 24006KT P6SM BKN050
     FM291900 26008KT 4SM SHRA VCTS BKN060CB
     FM292200 22008KT P6SM VCSH OVC080=

USA.gov is the U.S. government's official web portal to all federal, state and local government web resources and services.